sensor_id;sensor_type;location;lat;lon;timestamp;temperature;humidity
50738;DHT22;36703;48.154;17.126;2022-12-18T00:00:26;4.10;51.40
50738;DHT22;36703;48.154;17.126;2022-12-18T00:04:28;4.00;51.20
50738;DHT22;36703;48.154;17.126;2022-12-18T00:08:29;3.80;51.30
50738;DHT22;36703;48.154;17.126;2022-12-18T00:12:31;3.80;51.40
50738;DHT22;36703;48.154;17.126;2022-12-18T00:16:33;3.80;51.40
50738;DHT22;36703;48.154;17.126;2022-12-18T00:20:37;3.90;51.40
50738;DHT22;36703;48.154;17.126;2022-12-18T00:24:40;4.00;51.40
50738;DHT22;36703;48.154;17.126;2022-12-18T00:28:42;4.00;51.30
50738;DHT22;36703;48.154;17.126;2022-12-18T00:32:44;3.90;51.30
50738;DHT22;36703;48.154;17.126;2022-12-18T00:36:47;3.90;51.30
50738;DHT22;36703;48.154;17.126;2022-12-18T00:40:49;3.80;51.20
50738;DHT22;36703;48.154;17.126;2022-12-18T00:44:51;3.70;51.20
50738;DHT22;36703;48.154;17.126;2022-12-18T00:48:53;3.70;51.40
50738;DHT22;36703;48.154;17.126;2022-12-18T00:52:54;3.70;51.40
50738;DHT22;36703;48.154;17.126;2022-12-18T00:56:56;3.70;51.50
50738;DHT22;36703;48.154;17.126;2022-12-18T01:00:57;3.70;51.50
50738;DHT22;36703;48.154;17.126;2022-12-18T01:04:59;3.80;51.40
50738;DHT22;36703;48.154;17.126;2022-12-18T01:09:00;3.70;51.30
50738;DHT22;36703;48.154;17.126;2022-12-18T01:13:02;3.70;51.30
50738;DHT22;36703;48.154;17.126;2022-12-18T01:17:04;3.70;51.30
50738;DHT22;36703;48.154;17.126;2022-12-18T01:21:09;3.70;51.50
50738;DHT22;36703;48.154;17.126;2022-12-18T01:25:12;3.60;51.30
50738;DHT22;36703;48.154;17.126;2022-12-18T01:29:14;3.60;51.40
50738;DHT22;36703;48.154;17.126;2022-12-18T01:33:15;3.60;51.40
50738;DHT22;36703;48.154;17.126;2022-12-18T01:37:17;3.70;51.30
50738;DHT22;36703;48.154;17.126;2022-12-18T01:41:21;3.80;51.30
50738;DHT22;36703;48.154;17.126;2022-12-18T01:45:29;3.80;51.20
50738;DHT22;36703;48.154;17.126;2022-12-18T01:49:31;3.80;51.10
50738;DHT22;36703;48.154;17.126;2022-12-18T01:53:33;3.70;51.00
50738;DHT22;36703;48.154;17.126;2022-12-18T01:57:34;3.60;51.10
50738;DHT22;36703;48.154;17.126;2022-12-18T02:01:37;3.50;51.10
50738;DHT22;36703;48.154;17.126;2022-12-18T02:11:05;3.40;51.30
50738;DHT22;36703;48.154;17.126;2022-12-18T02:15:26;3.40;51.40
50738;DHT22;36703;48.154;17.126;2022-12-18T02:19:59;3.20;51.40
50738;DHT22;36703;48.154;17.126;2022-12-18T02:24:21;3.20;51.60
50738;DHT22;36703;48.154;17.126;2022-12-18T02:28:38;3.20;51.60
50738;DHT22;36703;48.154;17.126;2022-12-18T02:32:51;3.20;51.60
50738;DHT22;36703;48.154;17.126;2022-12-18T02:36:55;3.20;51.60
50738;DHT22;36703;48.154;17.126;2022-12-18T02:41:00;3.30;51.50
50738;DHT22;36703;48.154;17.126;2022-12-18T02:45:02;3.30;51.60
50738;DHT22;36703;48.154;17.126;2022-12-18T02:49:30;3.30;51.60
50738;DHT22;36703;48.154;17.126;2022-12-18T02:54:15;3.30;51.60
50738;DHT22;36703;48.154;17.126;2022-12-18T03:03:15;3.30;51.70
50738;DHT22;36703;48.154;17.126;2022-12-18T03:07:27;3.30;51.60
50738;DHT22;36703;48.154;17.126;2022-12-18T03:11:38;3.30;51.50
50738;DHT22;36703;48.154;17.126;2022-12-18T03:16:02;3.30;52.10
50738;DHT22;36703;48.154;17.126;2022-12-18T03:20:12;3.30;51.50
50738;DHT22;36703;48.154;17.126;2022-12-18T03:24:17;3.40;51.50
50738;DHT22;36703;48.154;17.126;2022-12-18T03:28:22;3.40;51.50
50738;DHT22;36703;48.154;17.126;2022-12-18T03:32:35;3.50;51.50
50738;DHT22;36703;48.154;17.126;2022-12-18T03:36:42;3.50;52.00
50738;DHT22;36703;48.154;17.126;2022-12-18T03:40:45;3.50;51.40
50738;DHT22;36703;48.154;17.126;2022-12-18T03:49:08;3.50;51.20
50738;DHT22;36703;48.154;17.126;2022-12-18T03:53:35;3.50;51.20
50738;DHT22;36703;48.154;17.126;2022-12-18T03:57:44;3.50;51.30
50738;DHT22;36703;48.154;17.126;2022-12-18T04:01:49;3.40;51.30
50738;DHT22;36703;48.154;17.126;2022-12-18T04:05:54;3.40;51.30
50738;DHT22;36703;48.154;17.126;2022-12-18T04:09:59;3.40;51.40
50738;DHT22;36703;48.154;17.126;2022-12-18T04:14:03;3.30;51.40
50738;DHT22;36703;48.154;17.126;2022-12-18T04:18:07;3.20;51.60
50738;DHT22;36703;48.154;17.126;2022-12-18T04:22:15;3.00;51.80
50738;DHT22;36703;48.154;17.126;2022-12-18T04:26:21;3.00;52.10
50738;DHT22;36703;48.154;17.126;2022-12-18T04:30:40;3.10;52.00
50738;DHT22;36703;48.154;17.126;2022-12-18T04:34:42;3.20;52.00
50738;DHT22;36703;48.154;17.126;2022-12-18T04:38:43;3.20;51.80
50738;DHT22;36703;48.154;17.126;2022-12-18T04:42:49;3.20;51.70
50738;DHT22;36703;48.154;17.126;2022-12-18T04:46:51;3.20;51.70
50738;DHT22;36703;48.154;17.126;2022-12-18T04:50:52;3.20;51.70
50738;DHT22;36703;48.154;17.126;2022-12-18T04:54:54;3.00;51.50
50738;DHT22;36703;48.154;17.126;2022-12-18T04:58:55;2.90;51.70
50738;DHT22;36703;48.154;17.126;2022-12-18T05:02:56;2.90;51.90
50738;DHT22;36703;48.154;17.126;2022-12-18T05:06:58;2.90;51.80
50738;DHT22;36703;48.154;17.126;2022-12-18T05:15:06;2.90;51.90
50738;DHT22;36703;48.154;17.126;2022-12-18T05:19:08;2.90;51.80
50738;DHT22;36703;48.154;17.126;2022-12-18T05:23:09;3.00;51.90
50738;DHT22;36703;48.154;17.126;2022-12-18T05:27:11;3.00;51.90
50738;DHT22;36703;48.154;17.126;2022-12-18T05:31:12;3.00;51.80
50738;DHT22;36703;48.154;17.126;2022-12-18T05:35:14;3.00;51.70
50738;DHT22;36703;48.154;17.126;2022-12-18T05:39:16;3.00;51.70
50738;DHT22;36703;48.154;17.126;2022-12-18T05:43:18;3.00;51.70
50738;DHT22;36703;48.154;17.126;2022-12-18T05:47:20;3.00;51.80
50738;DHT22;36703;48.154;17.126;2022-12-18T05:51:22;3.10;51.80
50738;DHT22;36703;48.154;17.126;2022-12-18T05:55:24;3.00;51.80
50738;DHT22;36703;48.154;17.126;2022-12-18T05:59:25;3.00;51.70
50738;DHT22;36703;48.154;17.126;2022-12-18T06:03:26;3.00;51.70
50738;DHT22;36703;48.154;17.126;2022-12-18T06:07:28;3.00;51.70
50738;DHT22;36703;48.154;17.126;2022-12-18T06:11:29;3.00;51.70
50738;DHT22;36703;48.154;17.126;2022-12-18T06:15:31;3.00;51.70
50738;DHT22;36703;48.154;17.126;2022-12-18T06:19:33;3.00;51.60
50738;DHT22;36703;48.154;17.126;2022-12-18T06:23:34;3.00;51.60
50738;DHT22;36703;48.154;17.126;2022-12-18T06:27:37;3.10;51.70
50738;DHT22;36703;48.154;17.126;2022-12-18T06:31:38;3.00;51.50
50738;DHT22;36703;48.154;17.126;2022-12-18T06:35:40;3.00;51.60
50738;DHT22;36703;48.154;17.126;2022-12-18T06:39:42;2.90;51.70
50738;DHT22;36703;48.154;17.126;2022-12-18T06:43:44;2.80;51.80
50738;DHT22;36703;48.154;17.126;2022-12-18T06:47:46;2.70;51.80
50738;DHT22;36703;48.154;17.126;2022-12-18T06:51:48;2.70;51.80
50738;DHT22;36703;48.154;17.126;2022-12-18T06:55:49;2.60;52.00
50738;DHT22;36703;48.154;17.126;2022-12-18T06:59:51;2.60;52.00
50738;DHT22;36703;48.154;17.126;2022-12-18T07:03:54;2.60;52.00
50738;DHT22;36703;48.154;17.126;2022-12-18T07:07:57;2.70;51.90
50738;DHT22;36703;48.154;17.126;2022-12-18T07:12:00;2.80;51.90
50738;DHT22;36703;48.154;17.126;2022-12-18T07:16:09;2.80;51.80
50738;DHT22;36703;48.154;17.126;2022-12-18T07:20:20;2.90;51.70
50738;DHT22;36703;48.154;17.126;2022-12-18T07:24:22;2.80;51.60
50738;DHT22;36703;48.154;17.126;2022-12-18T07:28:23;2.90;51.70
50738;DHT22;36703;48.154;17.126;2022-12-18T07:32:24;2.90;51.60
50738;DHT22;36703;48.154;17.126;2022-12-18T07:36:26;3.00;51.60
50738;DHT22;36703;48.154;17.126;2022-12-18T07:40:28;3.20;51.60
50738;DHT22;36703;48.154;17.126;2022-12-18T07:44:29;3.30;51.50
50738;DHT22;36703;48.154;17.126;2022-12-18T07:48:31;3.40;51.40
50738;DHT22;36703;48.154;17.126;2022-12-18T07:52:32;3.60;51.30
50738;DHT22;36703;48.154;17.126;2022-12-18T07:56:34;3.60;51.00
50738;DHT22;36703;48.154;17.126;2022-12-18T08:00:35;3.50;50.80
50738;DHT22;36703;48.154;17.126;2022-12-18T08:04:37;3.50;51.10
50738;DHT22;36703;48.154;17.126;2022-12-18T08:08:38;3.50;51.10
50738;DHT22;36703;48.154;17.126;2022-12-18T08:12:42;3.60;51.30
50738;DHT22;36703;48.154;17.126;2022-12-18T08:16:44;3.90;51.30
50738;DHT22;36703;48.154;17.126;2022-12-18T08:20:45;4.00;50.90
50738;DHT22;36703;48.154;17.126;2022-12-18T08:24:47;4.10;50.80
50738;DHT22;36703;48.154;17.126;2022-12-18T08:28:49;4.10;50.60
50738;DHT22;36703;48.154;17.126;2022-12-18T08:32:51;4.20;50.80
50738;DHT22;36703;48.154;17.126;2022-12-18T08:36:54;4.40;50.70
50738;DHT22;36703;48.154;17.126;2022-12-18T08:41:02;4.70;50.60
50738;DHT22;36703;48.154;17.126;2022-12-18T08:45:06;4.90;50.40
50738;DHT22;36703;48.154;17.126;2022-12-18T08:49:09;5.00;50.10
50738;DHT22;36703;48.154;17.126;2022-12-18T08:53:11;5.20;50.00
50738;DHT22;36703;48.154;17.126;2022-12-18T08:57:13;5.40;49.90
50738;DHT22;36703;48.154;17.126;2022-12-18T09:01:14;5.40;49.70
50738;DHT22;36703;48.154;17.126;2022-12-18T09:05:16;5.50;49.70
50738;DHT22;36703;48.154;17.126;2022-12-18T09:09:17;5.70;49.70
50738;DHT22;36703;48.154;17.126;2022-12-18T09:13:19;5.80;49.40
50738;DHT22;36703;48.154;17.126;2022-12-18T09:17:21;5.90;49.40
50738;DHT22;36703;48.154;17.126;2022-12-18T09:21:23;5.80;49.20
50738;DHT22;36703;48.154;17.126;2022-12-18T09:25:24;5.70;49.50
50738;DHT22;36703;48.154;17.126;2022-12-18T09:29:26;5.90;49.60
50738;DHT22;36703;48.154;17.126;2022-12-18T09:33:27;6.00;49.40
50738;DHT22;36703;48.154;17.126;2022-12-18T09:37:29;6.20;49.30
50738;DHT22;36703;48.154;17.126;2022-12-18T09:46:01;7.00;58.10
50738;DHT22;36703;48.154;17.126;2022-12-18T09:50:30;7.30;79.50
50738;DHT22;36703;48.154;17.126;2022-12-18T09:54:38;7.60;58.60
50738;DHT22;36703;48.154;17.126;2022-12-18T09:58:47;7.70;58.80
50738;DHT22;36703;48.154;17.126;2022-12-18T10:03:01;7.50;57.80
50738;DHT22;36703;48.154;17.126;2022-12-18T10:07:21;7.40;57.90
50738;DHT22;36703;48.154;17.126;2022-12-18T10:20:54;6.70;57.60
50738;DHT22;36703;48.154;17.126;2022-12-18T10:29:42;6.60;57.90
50738;DHT22;36703;48.154;17.126;2022-12-18T10:33:45;6.60;57.80
50738;DHT22;36703;48.154;17.126;2022-12-18T10:42:19;6.50;57.70
50738;DHT22;36703;48.154;17.126;2022-12-18T10:46:21;6.40;57.70
50738;DHT22;36703;48.154;17.126;2022-12-18T10:50:33;6.40;57.70
50738;DHT22;36703;48.154;17.126;2022-12-18T10:54:36;6.40;57.80
50738;DHT22;36703;48.154;17.126;2022-12-18T10:58:39;6.50;57.80
50738;DHT22;36703;48.154;17.126;2022-12-18T11:02:41;6.60;57.80
50738;DHT22;36703;48.154;17.126;2022-12-18T11:07:02;6.60;57.80
50738;DHT22;36703;48.154;17.126;2022-12-18T11:11:21;6.60;58.10
50738;DHT22;36703;48.154;17.126;2022-12-18T11:15:28;6.60;57.50
50738;DHT22;36703;48.154;17.126;2022-12-18T11:23:37;6.50;57.70
50738;DHT22;36703;48.154;17.126;2022-12-18T11:27:55;6.70;57.40
50738;DHT22;36703;48.154;17.126;2022-12-18T11:32:34;6.60;57.40
50738;DHT22;36703;48.154;17.126;2022-12-18T11:36:42;6.60;57.40
50738;DHT22;36703;48.154;17.126;2022-12-18T11:40:55;6.60;57.50
50738;DHT22;36703;48.154;17.126;2022-12-18T11:45:08;6.80;57.50
50738;DHT22;36703;48.154;17.126;2022-12-18T11:49:34;6.80;57.20
50738;DHT22;36703;48.154;17.126;2022-12-18T11:53:36;7.10;57.30
50738;DHT22;36703;48.154;17.126;2022-12-18T11:57:46;7.40;57.20
50738;DHT22;36703;48.154;17.126;2022-12-18T12:02:13;7.80;46.80
50738;DHT22;36703;48.154;17.126;2022-12-18T12:10:55;7.90;45.90
50738;DHT22;36703;48.154;17.126;2022-12-18T12:42:26;9.20;44.80
50738;DHT22;36703;48.154;17.126;2022-12-18T12:46:52;9.40;44.50
50738;DHT22;36703;48.154;17.126;2022-12-18T12:51:00;9.60;44.30
50738;DHT22;36703;48.154;17.126;2022-12-18T12:55:07;9.70;43.90
50738;DHT22;36703;48.154;17.126;2022-12-18T13:03:51;9.90;43.50
50738;DHT22;36703;48.154;17.126;2022-12-18T13:08:06;9.90;43.30
50738;DHT22;36703;48.154;17.126;2022-12-18T13:12:12;10.00;43.30
50738;DHT22;36703;48.154;17.126;2022-12-18T13:16:32;10.00;43.20
50738;DHT22;36703;48.154;17.126;2022-12-18T13:24:43;10.00;42.80
50738;DHT22;36703;48.154;17.126;2022-12-18T13:41:33;9.90;42.30
50738;DHT22;36703;48.154;17.126;2022-12-18T13:45:35;9.80;42.30
50738;DHT22;36703;48.154;17.126;2022-12-18T13:49:43;9.70;42.50
50738;DHT22;36703;48.154;17.126;2022-12-18T13:53:49;9.60;42.60
50738;DHT22;36703;48.154;17.126;2022-12-18T13:58:03;9.60;42.60
50738;DHT22;36703;48.154;17.126;2022-12-18T14:02:17;9.50;42.50
50738;DHT22;36703;48.154;17.126;2022-12-18T14:06:22;9.50;42.50
50738;DHT22;36703;48.154;17.126;2022-12-18T14:10:24;9.30;42.50
50738;DHT22;36703;48.154;17.126;2022-12-18T14:14:26;9.30;42.60
50738;DHT22;36703;48.154;17.126;2022-12-18T14:22:43;8.80;42.80
50738;DHT22;36703;48.154;17.126;2022-12-18T14:26:50;8.50;43.10
50738;DHT22;36703;48.154;17.126;2022-12-18T14:30:52;8.40;43.30
50738;DHT22;36703;48.154;17.126;2022-12-18T14:34:55;8.30;43.50
50738;DHT22;36703;48.154;17.126;2022-12-18T14:38:58;8.10;43.50
50738;DHT22;36703;48.154;17.126;2022-12-18T14:43:00;8.00;43.70
50738;DHT22;36703;48.154;17.126;2022-12-18T14:47:01;7.70;43.80
50738;DHT22;36703;48.154;17.126;2022-12-18T14:51:24;7.50;44.30
50738;DHT22;36703;48.154;17.126;2022-12-18T14:55:27;7.20;44.50
50738;DHT22;36703;48.154;17.126;2022-12-18T14:59:29;6.90;44.80
50738;DHT22;36703;48.154;17.126;2022-12-18T15:03:32;6.70;47.80
50738;DHT22;36703;48.154;17.126;2022-12-18T15:15:49;6.50;47.30
50738;DHT22;36703;48.154;17.126;2022-12-18T15:19:57;6.40;48.10
50738;DHT22;36703;48.154;17.126;2022-12-18T15:24:01;6.40;47.60
50738;DHT22;36703;48.154;17.126;2022-12-18T15:28:02;6.20;46.60
50738;DHT22;36703;48.154;17.126;2022-12-18T15:32:10;6.30;51.60
50738;DHT22;36703;48.154;17.126;2022-12-18T15:36:21;6.20;51.70
50738;DHT22;36703;48.154;17.126;2022-12-18T15:40:24;6.10;54.50
50738;DHT22;36703;48.154;17.126;2022-12-18T15:44:26;5.90;48.40
50738;DHT22;36703;48.154;17.126;2022-12-18T15:48:28;5.80;52.20
50738;DHT22;36703;48.154;17.126;2022-12-18T15:52:32;5.90;50.40
50738;DHT22;36703;48.154;17.126;2022-12-18T15:56:40;5.80;50.30
50738;DHT22;36703;48.154;17.126;2022-12-18T16:01:02;5.70;49.90
50738;DHT22;36703;48.154;17.126;2022-12-18T16:05:13;5.60;48.90
50738;DHT22;36703;48.154;17.126;2022-12-18T16:09:16;5.70;48.80
50738;DHT22;36703;48.154;17.126;2022-12-18T16:13:18;5.70;48.80
50738;DHT22;36703;48.154;17.126;2022-12-18T16:17:20;5.70;48.80
50738;DHT22;36703;48.154;17.126;2022-12-18T16:21:21;5.60;48.80
50738;DHT22;36703;48.154;17.126;2022-12-18T16:25:27;5.40;48.10
50738;DHT22;36703;48.154;17.126;2022-12-18T16:29:29;5.30;48.40
50738;DHT22;36703;48.154;17.126;2022-12-18T16:33:31;5.10;48.50
50738;DHT22;36703;48.154;17.126;2022-12-18T16:37:32;5.10;48.70
50738;DHT22;36703;48.154;17.126;2022-12-18T16:41:34;5.20;48.90
50738;DHT22;36703;48.154;17.126;2022-12-18T16:45:36;5.00;48.80
50738;DHT22;36703;48.154;17.126;2022-12-18T16:49:37;5.00;49.60
50738;DHT22;36703;48.154;17.126;2022-12-18T16:53:39;5.00;49.10
50738;DHT22;36703;48.154;17.126;2022-12-18T16:57:41;5.00;49.00
50738;DHT22;36703;48.154;17.126;2022-12-18T17:01:42;5.00;49.00
50738;DHT22;36703;48.154;17.126;2022-12-18T17:05:44;5.00;49.10
50738;DHT22;36703;48.154;17.126;2022-12-18T17:09:45;5.00;49.10
50738;DHT22;36703;48.154;17.126;2022-12-18T17:13:47;4.90;49.10
50738;DHT22;36703;48.154;17.126;2022-12-18T17:17:48;4.80;49.20
50738;DHT22;36703;48.154;17.126;2022-12-18T17:21:50;4.80;49.30
50738;DHT22;36703;48.154;17.126;2022-12-18T17:25:57;4.80;49.30
50738;DHT22;36703;48.154;17.126;2022-12-18T17:29:59;4.80;49.50
50738;DHT22;36703;48.154;17.126;2022-12-18T17:34:02;4.80;49.60
50738;DHT22;36703;48.154;17.126;2022-12-18T17:38:04;4.80;49.70
50738;DHT22;36703;48.154;17.126;2022-12-18T17:42:06;4.70;49.90
50738;DHT22;36703;48.154;17.126;2022-12-18T17:46:11;4.70;51.40
50738;DHT22;36703;48.154;17.126;2022-12-18T17:50:14;4.70;51.40
50738;DHT22;36703;48.154;17.126;2022-12-18T17:54:16;4.70;51.40
50738;DHT22;36703;48.154;17.126;2022-12-18T17:58:17;4.80;51.50
50738;DHT22;36703;48.154;17.126;2022-12-18T18:02:19;4.70;51.50
50738;DHT22;36703;48.154;17.126;2022-12-18T18:06:21;4.70;51.40
50738;DHT22;36703;48.154;17.126;2022-12-18T18:10:23;4.70;51.20
50738;DHT22;36703;48.154;17.126;2022-12-18T18:14:25;4.90;51.30
50738;DHT22;36703;48.154;17.126;2022-12-18T18:18:28;4.70;51.20
50738;DHT22;36703;48.154;17.126;2022-12-18T18:22:29;4.70;51.90
50738;DHT22;36703;48.154;17.126;2022-12-18T18:26:31;4.60;51.30
50738;DHT22;36703;48.154;17.126;2022-12-18T18:34:37;4.60;51.20
50738;DHT22;36703;48.154;17.126;2022-12-18T18:38:39;4.70;52.00
50738;DHT22;36703;48.154;17.126;2022-12-18T18:42:41;4.60;52.10
50738;DHT22;36703;48.154;17.126;2022-12-18T18:46:43;4.60;52.40
50738;DHT22;36703;48.154;17.126;2022-12-18T18:50:57;4.50;52.90
50738;DHT22;36703;48.154;17.126;2022-12-18T18:55:00;4.50;53.80
50738;DHT22;36703;48.154;17.126;2022-12-18T18:59:02;4.60;53.80
50738;DHT22;36703;48.154;17.126;2022-12-18T19:03:03;4.60;53.80
50738;DHT22;36703;48.154;17.126;2022-12-18T19:07:07;4.60;53.80
50738;DHT22;36703;48.154;17.126;2022-12-18T19:11:09;4.60;53.80
50738;DHT22;36703;48.154;17.126;2022-12-18T19:15:32;4.50;53.70
50738;DHT22;36703;48.154;17.126;2022-12-18T19:19:34;4.50;53.60
50738;DHT22;36703;48.154;17.126;2022-12-18T19:23:36;4.50;53.60
50738;DHT22;36703;48.154;17.126;2022-12-18T19:27:37;4.40;53.40
50738;DHT22;36703;48.154;17.126;2022-12-18T19:31:40;4.50;53.40
50738;DHT22;36703;48.154;17.126;2022-12-18T19:35:42;4.40;68.70
50738;DHT22;36703;48.154;17.126;2022-12-18T19:39:43;4.40;67.20
50738;DHT22;36703;48.154;17.126;2022-12-18T19:43:46;4.40;68.20
50738;DHT22;36703;48.154;17.126;2022-12-18T19:47:48;4.40;67.80
50738;DHT22;36703;48.154;17.126;2022-12-18T19:51:49;4.50;68.00
50738;DHT22;36703;48.154;17.126;2022-12-18T19:55:51;4.30;59.20
50738;DHT22;36703;48.154;17.126;2022-12-18T19:59:52;4.30;56.90
50738;DHT22;36703;48.154;17.126;2022-12-18T20:03:54;4.20;56.50
50738;DHT22;36703;48.154;17.126;2022-12-18T20:07:55;4.20;56.30
50738;DHT22;36703;48.154;17.126;2022-12-18T20:11:57;4.10;56.00
50738;DHT22;36703;48.154;17.126;2022-12-18T20:15:59;4.00;54.10
50738;DHT22;36703;48.154;17.126;2022-12-18T20:20:00;4.00;54.10
50738;DHT22;36703;48.154;17.126;2022-12-18T20:24:02;4.00;55.80
50738;DHT22;36703;48.154;17.126;2022-12-18T20:28:04;3.90;54.10
50738;DHT22;36703;48.154;17.126;2022-12-18T20:32:06;3.90;52.80
50738;DHT22;36703;48.154;17.126;2022-12-18T20:36:11;3.70;52.60
50738;DHT22;36703;48.154;17.126;2022-12-18T20:40:14;3.60;52.90
50738;DHT22;36703;48.154;17.126;2022-12-18T20:44:16;3.60;52.50
50738;DHT22;36703;48.154;17.126;2022-12-18T20:48:18;3.60;52.50
50738;DHT22;36703;48.154;17.126;2022-12-18T20:52:20;3.60;52.50
50738;DHT22;36703;48.154;17.126;2022-12-18T20:56:22;3.50;52.30
50738;DHT22;36703;48.154;17.126;2022-12-18T21:00:23;3.40;52.30
50738;DHT22;36703;48.154;17.126;2022-12-18T21:04:25;3.50;53.40
50738;DHT22;36703;48.154;17.126;2022-12-18T21:08:26;3.30;52.80
50738;DHT22;36703;48.154;17.126;2022-12-18T21:12:28;3.20;52.80
50738;DHT22;36703;48.154;17.126;2022-12-18T21:16:34;3.40;52.90
50738;DHT22;36703;48.154;17.126;2022-12-18T21:20:35;3.20;52.90
50738;DHT22;36703;48.154;17.126;2022-12-18T21:24:37;3.20;53.20
50738;DHT22;36703;48.154;17.126;2022-12-18T21:28:38;3.20;53.20
50738;DHT22;36703;48.154;17.126;2022-12-18T21:32:40;3.60;53.30
50738;DHT22;36703;48.154;17.126;2022-12-18T21:36:42;3.20;53.00
50738;DHT22;36703;48.154;17.126;2022-12-18T21:40:43;3.20;53.10
50738;DHT22;36703;48.154;17.126;2022-12-18T21:44:47;3.10;53.00
50738;DHT22;36703;48.154;17.126;2022-12-18T21:48:49;3.10;53.00
50738;DHT22;36703;48.154;17.126;2022-12-18T21:52:50;3.30;53.30
50738;DHT22;36703;48.154;17.126;2022-12-18T21:57:00;3.20;53.10
50738;DHT22;36703;48.154;17.126;2022-12-18T22:01:03;3.10;52.90
50738;DHT22;36703;48.154;17.126;2022-12-18T22:05:05;3.00;53.00
50738;DHT22;36703;48.154;17.126;2022-12-18T22:09:11;3.10;53.10
50738;DHT22;36703;48.154;17.126;2022-12-18T22:13:15;3.00;53.00
50738;DHT22;36703;48.154;17.126;2022-12-18T22:35:19;2.90;58.60
50738;DHT22;36703;48.154;17.126;2022-12-18T22:39:25;2.90;58.10
50738;DHT22;36703;48.154;17.126;2022-12-18T22:43:28;2.80;57.80
50738;DHT22;36703;48.154;17.126;2022-12-18T22:47:30;2.90;57.70
50738;DHT22;36703;48.154;17.126;2022-12-18T22:51:31;2.80;57.60
50738;DHT22;36703;48.154;17.126;2022-12-18T22:55:33;2.80;57.40
50738;DHT22;36703;48.154;17.126;2022-12-18T22:59:34;2.70;57.30
50738;DHT22;36703;48.154;17.126;2022-12-18T23:03:36;2.50;53.40
50738;DHT22;36703;48.154;17.126;2022-12-18T23:07:38;2.50;53.30
50738;DHT22;36703;48.154;17.126;2022-12-18T23:11:39;2.50;53.40
50738;DHT22;36703;48.154;17.126;2022-12-18T23:15:41;2.40;53.40
50738;DHT22;36703;48.154;17.126;2022-12-18T23:19:43;2.40;53.90
50738;DHT22;36703;48.154;17.126;2022-12-18T23:23:44;2.40;53.30
50738;DHT22;36703;48.154;17.126;2022-12-18T23:27:46;2.40;53.30
50738;DHT22;36703;48.154;17.126;2022-12-18T23:31:47;2.30;53.40
50738;DHT22;36703;48.154;17.126;2022-12-18T23:35:49;2.20;53.40
50738;DHT22;36703;48.154;17.126;2022-12-18T23:39:50;2.20;53.30
50738;DHT22;36703;48.154;17.126;2022-12-18T23:43:52;2.30;53.50
50738;DHT22;36703;48.154;17.126;2022-12-18T23:47:54;2.40;53.50
50738;DHT22;36703;48.154;17.126;2022-12-18T23:51:56;2.30;53.40
50738;DHT22;36703;48.154;17.126;2022-12-18T23:55:57;2.30;53.40
50738;DHT22;36703;48.154;17.126;2022-12-18T23:59:59;2.40;53.40
